createdAt,value
2022-12-11T00:01:15.389Z,20.85
2022-12-11T00:03:44.020Z,21.13
2022-12-11T00:06:15.780Z,22.05
2022-12-11T00:08:44.620Z,20.80
2022-12-11T00:11:16.139Z,20.13
2022-12-11T00:13:44.818Z,21.55
2022-12-11T00:16:13.482Z,20.45
2022-12-11T00:18:42.300Z,21.15
2022-12-11T00:21:14.419Z,22.88
2022-12-11T00:23:42.699Z,21.98
2022-12-11T00:26:15.338Z,21.48
2022-12-11T00:28:44.820Z,22.30
2022-12-11T00:31:18.631Z,22.63
2022-12-11T00:33:49.939Z,23.98
2022-12-11T00:36:21.699Z,22.65
2022-12-11T00:38:50.660Z,22.95
2022-12-11T00:41:19.635Z,22.45
2022-12-11T00:43:48.358Z,22.40
2022-12-11T00:46:17.204Z,21.25
2022-12-11T00:48:46.738Z,23.45
2022-12-11T00:51:14.874Z,23.48
2022-12-11T00:53:42.993Z,22.30
2022-12-11T00:56:20.235Z,21.10
2022-12-11T01:01:23.888Z,20.70
2022-12-11T01:03:54.513Z,18.93
2022-12-11T01:06:25.594Z,20.40
2022-12-11T01:09:15.558Z,18.58
2022-12-11T01:11:44.524Z,19.05
2022-12-11T01:14:13.829Z,19.85
2022-12-11T01:16:42.464Z,19.02
2022-12-11T01:19:11.113Z,20.15
2022-12-11T01:21:39.601Z,18.38
2022-12-11T01:24:08.228Z,17.58
2022-12-11T01:26:36.491Z,18.92
2022-12-11T01:29:05.030Z,17.83
2022-12-11T01:31:34.499Z,17.35
2022-12-11T01:34:03.058Z,16.25
2022-12-11T01:36:31.618Z,15.80
2022-12-11T01:39:00.323Z,16.13
2022-12-11T01:41:28.919Z,15.20
2022-12-11T01:44:03.805Z,14.80
2022-12-11T01:46:35.086Z,15.40
2022-12-11T01:49:08.399Z,15.63
2022-12-11T01:51:46.564Z,17.00
2022-12-11T01:54:18.204Z,15.80
2022-12-11T01:56:49.003Z,14.32
2022-12-11T01:59:24.045Z,15.77
2022-12-11T02:02:00.083Z,16.90
2022-12-11T02:04:29.604Z,16.05
2022-12-11T02:06:57.684Z,15.98
2022-12-11T02:09:29.564Z,14.05
2022-12-11T02:12:10.324Z,14.85
2022-12-11T02:15:06.445Z,14.65
2022-12-11T02:17:45.044Z,14.45
2022-12-11T02:20:35.644Z,14.63
2022-12-11T02:23:15.845Z,14.23
2022-12-11T02:26:08.524Z,14.80
2022-12-11T02:28:47.538Z,13.82
2022-12-11T02:31:38.383Z,14.80
2022-12-11T02:34:13.200Z,13.73
2022-12-11T02:36:45.929Z,14.73
2022-12-11T02:39:16.800Z,13.93
2022-12-11T02:41:49.870Z,14.07
2022-12-11T02:44:26.335Z,13.93
2022-12-11T02:46:56.333Z,14.82
2022-12-11T02:49:26.297Z,14.18
2022-12-11T02:51:57.524Z,16.13
2022-12-11T02:54:31.529Z,15.15
2022-12-11T02:57:09.209Z,15.82
2022-12-11T02:59:41.569Z,14.95
2022-12-11T03:02:11.883Z,14.80
2022-12-11T03:04:41.214Z,15.45
2022-12-11T03:07:16.134Z,14.50
2022-12-11T03:09:47.723Z,14.73
2022-12-11T03:12:30.064Z,15.85
2022-12-11T03:15:04.505Z,14.57
2022-12-11T03:17:38.803Z,14.40
2022-12-11T03:20:25.950Z,12.77
2022-12-11T03:23:09.858Z,12.93
2022-12-11T03:25:50.514Z,13.90
2022-12-11T03:28:29.694Z,12.48
2022-12-11T03:31:03.762Z,12.38
2022-12-11T03:33:37.319Z,12.05
2022-12-11T03:36:14.174Z,11.98
2022-12-11T03:38:51.933Z,11.82
2022-12-11T03:41:23.734Z,12.68
2022-12-11T03:43:56.850Z,12.30
2022-12-11T03:46:31.229Z,12.73
2022-12-11T03:49:08.325Z,11.13
2022-12-11T03:54:05.406Z,12.57
2022-12-11T03:56:36.808Z,12.75
2022-12-11T03:59:05.283Z,11.75
2022-12-11T04:01:33.383Z,10.98
2022-12-11T04:04:01.517Z,11.25
2022-12-11T04:06:30.204Z,13.02
2022-12-11T04:08:58.245Z,12.70
2022-12-11T04:11:35.083Z,13.05
2022-12-11T04:14:40.535Z,12.82
2022-12-11T04:17:08.698Z,13.57
2022-12-11T04:19:55.284Z,13.43
2022-12-11T04:22:41.815Z,12.90
2022-12-11T04:25:10.509Z,13.18
2022-12-11T04:27:51.095Z,13.98
2022-12-11T04:30:28.050Z,14.38
2022-12-11T04:32:59.614Z,14.40
2022-12-11T04:35:28.595Z,15.15
2022-12-11T04:37:57.616Z,13.75
2022-12-11T04:40:26.019Z,13.85
2022-12-11T04:42:54.774Z,12.07
2022-12-11T17:15:51.113Z,4.03
2022-12-11T17:18:20.450Z,3.85
2022-12-11T17:20:50.716Z,3.92
2022-12-11T17:23:20.566Z,6.22
2022-12-11T17:28:47.005Z,15.43
2022-12-11T17:31:21.738Z,7.07
2022-12-11T17:38:37.754Z,10.40
2022-12-11T17:41:20.534Z,8.55
2022-12-11T17:43:54.795Z,8.32
2022-12-11T17:46:33.861Z,8.55
2022-12-11T17:57:33.464Z,5.30
2022-12-11T18:05:33.815Z,3.95
2022-12-11T18:25:09.565Z,4.20
2022-12-11T18:30:28.249Z,3.65
2022-12-11T18:33:01.968Z,4.25
2022-12-11T18:35:36.355Z,4.05
2022-12-11T18:40:54.835Z,4.43
2022-12-11T19:24:34.704Z,4.32
2022-12-11T20:26:00.666Z,8.00
